createdAt,value
2023-04-13T00:01:27.769Z,98333.25
2023-04-13T00:03:55.052Z,98329.56
2023-04-13T00:06:23.100Z,98326.94
2023-04-13T00:08:50.543Z,98321.44
2023-04-13T00:11:18.228Z,98324.00
2023-04-13T00:13:47.935Z,98335.69
2023-04-13T00:16:16.737Z,98338.75
2023-04-13T00:18:43.745Z,98346.28
2023-04-13T00:21:10.778Z,98346.53
2023-04-13T00:23:38.166Z,98352.91
2023-04-13T00:26:08.415Z,98347.41
2023-04-13T00:28:35.804Z,98355.34
2023-04-13T00:31:02.866Z,98352.03
2023-04-13T00:33:32.787Z,98357.13
2023-04-13T00:36:00.062Z,98356.38
2023-04-13T00:38:30.141Z,98362.03
2023-04-13T00:40:57.574Z,98359.06
2023-04-13T00:43:25.369Z,98362.47
2023-04-13T00:45:52.456Z,98358.09
2023-04-13T00:48:20.832Z,98360.34
2023-04-13T00:50:48.460Z,98365.63
2023-04-13T00:53:16.636Z,98360.75
2023-04-13T00:55:44.593Z,98370.09
2023-04-13T00:58:13.595Z,98362.16
2023-04-13T01:00:43.465Z,98357.91
2023-04-13T01:03:11.138Z,98355.88
2023-04-13T01:06:01.390Z,98344.53
2023-04-13T01:08:39.825Z,98343.47
2023-04-13T01:11:15.541Z,98345.81
2023-04-13T01:14:13.585Z,98341.84
2023-04-13T01:16:51.437Z,98336.03
2023-04-13T01:19:44.143Z,98337.09
2023-04-13T01:22:14.611Z,98349.28
2023-04-13T01:25:24.083Z,98335.50
2023-04-13T01:28:09.897Z,98330.59
2023-04-13T01:30:39.587Z,98342.31
2023-04-13T01:33:07.770Z,98331.97
2023-04-13T01:35:37.173Z,98336.88
2023-04-13T01:38:05.436Z,98342.59
2023-04-13T01:40:36.797Z,98344.56
2023-04-13T01:43:04.210Z,98337.91
2023-04-13T01:45:46.615Z,98341.00
2023-04-13T01:48:35.463Z,98357.31
2023-04-13T01:51:25.127Z,98352.22
2023-04-13T01:54:27.585Z,98340.31
2023-04-13T01:56:57.369Z,98336.84
2023-04-13T01:59:24.538Z,98345.09
2023-04-13T02:01:51.654Z,98343.19
2023-04-13T02:04:20.922Z,98336.47
2023-04-13T02:06:48.517Z,98325.81
2023-04-13T02:09:15.799Z,98328.56
2023-04-13T02:11:44.329Z,98333.19
2023-04-13T02:14:11.624Z,98327.16
2023-04-13T02:16:39.156Z,98331.69
2023-04-13T02:19:06.894Z,98335.19
2023-04-13T02:21:34.915Z,98345.94
2023-04-13T02:24:02.960Z,98343.00
2023-04-13T02:26:30.154Z,98348.19
2023-04-13T02:28:57.240Z,98355.84
2023-04-13T02:31:24.582Z,98356.84
2023-04-13T02:33:54.724Z,98357.59
2023-04-13T02:36:22.071Z,98359.84
2023-04-13T02:38:56.328Z,98361.09
2023-04-13T02:41:30.087Z,98357.28
2023-04-13T02:43:57.938Z,98356.53
2023-04-13T02:46:29.381Z,98353.06
2023-04-13T02:49:04.048Z,98355.22
2023-04-13T02:51:37.313Z,98346.81
2023-04-13T02:54:05.247Z,98340.69
2023-04-13T02:56:38.887Z,98347.47
2023-04-13T02:59:06.983Z,98342.72
2023-04-13T03:01:34.196Z,98347.31
2023-04-13T03:04:02.555Z,98356.13
2023-04-13T03:06:31.515Z,98354.31
2023-04-13T03:09:01.915Z,98358.69
2023-04-13T03:11:37.794Z,98364.06
2023-04-13T03:14:13.477Z,98354.59
2023-04-13T03:16:42.594Z,98359.97
2023-04-13T03:19:12.486Z,98362.16
2023-04-13T03:21:47.692Z,98369.81
2023-04-13T03:24:20.761Z,98364.88
2023-04-13T03:26:50.378Z,98359.31
2023-04-13T03:29:25.971Z,98358.31
2023-04-13T03:31:54.487Z,98358.13
2023-04-13T03:34:22.140Z,98377.16
2023-04-13T03:36:50.611Z,98379.03
2023-04-13T03:39:20.233Z,98389.91
2023-04-13T03:41:48.261Z,98393.94
2023-04-13T03:44:17.509Z,98394.13
2023-04-13T03:46:45.691Z,98402.41
2023-04-13T03:49:36.716Z,98405.44
2023-04-13T03:52:04.516Z,98414.78
2023-04-13T03:54:38.649Z,98408.91
2023-04-13T03:57:06.765Z,98405.84
2023-04-13T03:59:36.225Z,98408.09
2023-04-13T04:02:06.296Z,98410.34
2023-04-13T04:04:38.836Z,98404.78
2023-04-13T04:07:26.299Z,98393.19
2023-04-13T04:09:53.610Z,98397.13
2023-04-13T04:12:23.814Z,98408.25
2023-04-13T04:14:51.543Z,98407.09
2023-04-13T04:17:24.813Z,98409.47
2023-04-13T04:19:52.259Z,98403.00
2023-04-13T04:22:30.475Z,98405.25
2023-04-13T04:25:00.542Z,98409.19
2023-04-13T04:27:28.292Z,98406.78
2023-04-13T04:30:01.882Z,98400.75
2023-04-13T04:32:34.435Z,98399.91
2023-04-13T04:35:05.229Z,98394.53
2023-04-13T04:37:38.048Z,98403.97
2023-04-13T04:40:17.654Z,98400.13
2023-04-13T04:42:46.274Z,98407.34
2023-04-13T04:45:38.767Z,98423.97
2023-04-13T04:48:08.443Z,98425.69
2023-04-13T04:50:37.919Z,98428.13
2023-04-13T04:53:12.311Z,98430.13
2023-04-13T04:55:40.612Z,98419.44
2023-04-13T04:58:12.369Z,98424.38
2023-04-13T05:00:44.831Z,98427.84
2023-04-13T05:03:16.021Z,98419.63
2023-04-13T05:05:48.888Z,98414.41
2023-04-13T05:08:22.616Z,98397.97
2023-04-13T05:10:50.527Z,98397.16
2023-04-13T05:13:19.453Z,98400.69
2023-04-13T05:15:57.934Z,98414.25
2023-04-13T05:18:26.066Z,98418.69
2023-04-13T05:20:54.875Z,98415.47
2023-04-13T05:23:22.961Z,98416.34
2023-04-13T05:25:57.178Z,98417.63
2023-04-13T05:28:26.787Z,98419.78
2023-04-13T05:30:53.985Z,98408.03
2023-04-13T05:33:22.308Z,98409.47
2023-04-13T05:35:53.844Z,98409.00
2023-04-13T05:38:22.176Z,98413.47
2023-04-13T05:40:49.979Z,98415.19
2023-04-13T05:43:18.398Z,98419.41
2023-04-13T05:45:50.771Z,98417.34
2023-04-13T05:48:17.936Z,98415.66
2023-04-13T05:50:46.601Z,98419.28
2023-04-13T05:53:14.849Z,98415.66
2023-04-13T05:55:48.286Z,98414.44
2023-04-13T05:58:19.690Z,98410.44
2023-04-13T06:00:51.906Z,98412.97
2023-04-13T06:03:30.054Z,98415.09
2023-04-13T06:05:57.953Z,98413.00
2023-04-13T06:08:32.771Z,98418.88
2023-04-13T06:11:01.352Z,98421.06
2023-04-13T06:13:28.913Z,98417.66
2023-04-13T06:15:58.194Z,98423.41
2023-04-13T06:18:27.864Z,98426.19
2023-04-13T06:20:57.986Z,98426.66
2023-04-13T06:23:26.608Z,98436.72
2023-04-13T06:25:58.020Z,98436.09
2023-04-13T06:28:40.461Z,98433.13
2023-04-13T06:31:12.205Z,98436.00
2023-04-13T06:33:42.066Z,98435.88
2023-04-13T06:36:11.970Z,98435.09
2023-04-13T06:38:40.081Z,98443.59
2023-04-13T06:41:12.006Z,98445.78
2023-04-13T06:43:42.387Z,98455.13
2023-04-13T06:46:20.254Z,98449.94
2023-04-13T06:48:51.047Z,98458.25
2023-04-13T06:51:24.518Z,98451.34
2023-04-13T06:53:54.846Z,98443.84
2023-04-13T06:56:23.240Z,98438.72
2023-04-13T06:58:51.621Z,98439.13
2023-04-13T07:01:19.086Z,98441.84
2023-04-13T07:03:49.821Z,98439.38
2023-04-13T07:06:18.028Z,98434.47
2023-04-13T07:08:46.258Z,98434.53
2023-04-13T07:11:14.958Z,98442.78
2023-04-13T07:13:43.924Z,98440.09
2023-04-13T07:16:16.524Z,98445.97
2023-04-13T07:18:47.845Z,98448.09
2023-04-13T07:21:15.648Z,98439.22
2023-04-13T07:24:01.872Z,98450.59
2023-04-13T07:26:32.076Z,98458.78
2023-04-13T07:29:01.802Z,98455.72
2023-04-13T07:31:35.516Z,98456.66
2023-04-13T07:34:03.783Z,98465.94
2023-04-13T07:36:42.657Z,98464.06
2023-04-13T07:39:14.106Z,98461.84
2023-04-13T07:41:46.923Z,98468.91
2023-04-13T07:44:20.743Z,98461.06
2023-04-13T07:46:48.766Z,98451.41
2023-04-13T07:49:20.392Z,98446.63
2023-04-13T07:51:48.033Z,98444.56
2023-04-13T07:54:17.427Z,98450.22
2023-04-13T07:56:46.150Z,98449.72
2023-04-13T07:59:14.639Z,98451.41
2023-04-13T08:01:44.530Z,98449.16
2023-04-13T08:04:13.241Z,98453.06
2023-04-13T08:06:42.835Z,98464.16
2023-04-13T08:09:09.905Z,98465.09
2023-04-13T08:11:37.693Z,98476.31
2023-04-13T08:14:09.928Z,98480.13
2023-04-13T08:16:39.901Z,98479.59
2023-04-13T08:19:10.048Z,98478.91
2023-04-13T08:21:44.038Z,98475.75
2023-04-13T08:24:11.659Z,98476.84
2023-04-13T08:26:40.128Z,98473.00
2023-04-13T08:29:08.552Z,98482.22
2023-04-13T08:31:36.994Z,98481.44
2023-04-13T08:34:07.820Z,98474.31
2023-04-13T08:36:37.187Z,98480.00
2023-04-13T08:39:11.205Z,98478.44
2023-04-13T08:41:48.035Z,98475.00
2023-04-13T08:44:18.090Z,98475.47
2023-04-13T08:46:51.944Z,98482.72
2023-04-13T08:49:27.797Z,98484.56
2023-04-13T08:52:16.904Z,98482.69
2023-04-13T08:54:49.891Z,98477.28
2023-04-13T08:57:25.029Z,98477.47
2023-04-13T08:59:53.710Z,98478.66
2023-04-13T09:02:27.070Z,98478.50
2023-04-13T09:05:02.011Z,98479.00
2023-04-13T09:07:35.074Z,98476.81
2023-04-13T09:10:10.394Z,98482.94
2023-04-13T09:12:42.447Z,98490.13
2023-04-13T09:15:13.922Z,98487.78
2023-04-13T09:17:50.833Z,98481.81
2023-04-13T09:20:24.062Z,98491.16
2023-04-13T09:22:52.178Z,98499.16
2023-04-13T09:25:28.672Z,98494.69
2023-04-13T09:27:57.302Z,98494.03
2023-04-13T09:30:30.078Z,98492.50
2023-04-13T09:33:05.175Z,98496.41
2023-04-13T09:35:34.468Z,98493.19
2023-04-13T09:38:02.058Z,98506.16
2023-04-13T09:40:29.710Z,98498.72
2023-04-13T09:42:58.285Z,98502.34
2023-04-13T09:45:35.328Z,98494.06
2023-04-13T09:48:04.368Z,98503.00
2023-04-13T09:50:34.998Z,98499.22
2023-04-13T09:53:07.298Z,98501.91
2023-04-13T09:55:39.241Z,98502.22
2023-04-13T09:58:10.727Z,98507.41
2023-04-13T10:00:40.675Z,98510.19
2023-04-13T10:03:14.107Z,98511.81
2023-04-13T10:05:58.666Z,98519.53
2023-04-13T10:08:37.414Z,98514.22
2023-04-13T10:11:14.308Z,98510.47
2023-04-13T10:13:54.296Z,98502.81
2023-04-13T10:16:31.244Z,98505.31
2023-04-13T10:19:12.695Z,98491.81
2023-04-13T10:21:43.845Z,98500.72
2023-04-13T10:24:13.738Z,98500.28
2023-04-13T10:26:45.292Z,98500.03
2023-04-13T10:29:15.154Z,98502.03
2023-04-13T10:31:47.638Z,98498.38
2023-04-13T10:34:44.195Z,98500.84
2023-04-13T10:37:29.102Z,98505.47
2023-04-13T10:40:08.302Z,98499.38
2023-04-13T10:45:27.335Z,98514.59
2023-04-13T10:47:56.087Z,98520.56
2023-04-13T10:50:30.480Z,98521.94
2023-04-13T10:53:07.528Z,98525.50
2023-04-13T10:55:36.266Z,98518.53
2023-04-13T10:58:17.420Z,98521.63
2023-04-13T11:00:47.422Z,98535.63
2023-04-13T11:03:16.892Z,98521.38
2023-04-13T11:05:47.854Z,98524.44
2023-04-13T11:08:19.958Z,98532.94
2023-04-13T11:10:58.052Z,98541.00
2023-04-13T11:13:26.366Z,98535.38
2023-04-13T11:16:04.792Z,98538.22
2023-04-13T11:18:33.060Z,98540.00
2023-04-13T11:21:06.732Z,98544.78
2023-04-13T11:23:36.599Z,98546.69
2023-04-13T11:26:06.125Z,98546.34
2023-04-13T11:28:47.854Z,98547.44
2023-04-13T11:31:16.019Z,98552.25
2023-04-13T11:33:45.063Z,98551.13
2023-04-13T11:36:13.179Z,98549.19
2023-04-13T11:38:42.695Z,98557.69
2023-04-13T11:43:42.498Z,98553.19
2023-04-13T11:46:13.877Z,98552.13
2023-04-13T11:48:42.341Z,98561.19
2023-04-13T11:51:11.549Z,98557.41
2023-04-13T11:53:41.519Z,98561.16
2023-04-13T11:56:09.696Z,98560.25
2023-04-13T11:58:42.980Z,98561.00
2023-04-13T12:01:14.727Z,98558.03
2023-04-13T12:06:18.317Z,98553.41
2023-04-13T12:08:49.547Z,98555.81
2023-04-13T12:11:41.573Z,98556.31
2023-04-13T12:14:41.164Z,98562.97
2023-04-13T12:17:37.466Z,98554.34
2023-04-13T12:20:03.652Z,98553.25
2023-04-13T12:22:51.692Z,98553.91
2023-04-13T12:25:25.753Z,98556.91
2023-04-13T12:27:54.480Z,98553.66
2023-04-13T12:30:23.310Z,98566.13
2023-04-13T12:32:56.860Z,98561.84
2023-04-13T12:35:24.355Z,98562.78
2023-04-13T12:37:53.037Z,98561.84
2023-04-13T12:40:20.617Z,98567.47
2023-04-13T12:42:49.571Z,98579.19
2023-04-13T12:45:17.888Z,98571.81
2023-04-13T12:47:46.237Z,98568.81
2023-04-13T12:50:13.619Z,98571.53
2023-04-13T12:52:43.774Z,98564.94
2023-04-13T12:55:11.790Z,98556.69
2023-04-13T12:57:40.533Z,98554.13
2023-04-13T13:00:11.415Z,98556.84
2023-04-13T13:02:39.342Z,98564.69
2023-04-13T13:05:07.744Z,98564.91
2023-04-13T13:07:35.941Z,98560.72
2023-04-13T13:10:07.749Z,98567.63
2023-04-13T13:12:39.995Z,98564.38
2023-04-13T13:15:11.216Z,98568.00
2023-04-13T13:17:42.141Z,98572.91
2023-04-13T13:20:14.577Z,98583.09
2023-04-13T13:22:42.700Z,98574.63
2023-04-13T13:25:11.008Z,98581.66
2023-04-13T13:28:05.365Z,98579.50
2023-04-13T13:30:27.475Z,98574.91
2023-04-13T13:32:54.567Z,98571.75
2023-04-13T13:35:22.015Z,98570.75
2023-04-13T13:37:50.328Z,98569.56
2023-04-13T13:40:18.160Z,98583.97
2023-04-13T13:42:51.955Z,98584.50
2023-04-13T13:45:23.176Z,98579.41
2023-04-13T13:47:55.722Z,98590.59
2023-04-13T13:50:40.078Z,98597.06
2023-04-13T13:53:11.940Z,98590.91
2023-04-13T13:55:42.145Z,98583.41
2023-04-13T13:58:10.169Z,98588.97
2023-04-13T14:00:38.464Z,98588.34
2023-04-13T14:03:06.147Z,98588.56
2023-04-13T14:05:33.825Z,98591.97
2023-04-13T14:08:01.764Z,98600.47
2023-04-13T14:10:29.640Z,98604.53
2023-04-13T14:12:57.368Z,98604.81
2023-04-13T14:15:24.524Z,98597.06
2023-04-13T14:18:06.557Z,98613.97
2023-04-13T14:20:41.079Z,98614.78
2023-04-13T14:23:09.739Z,98611.25
2023-04-13T14:25:38.752Z,98607.94
2023-04-13T14:28:06.988Z,98611.63
2023-04-13T14:30:34.145Z,98606.09
2023-04-13T14:33:02.309Z,98608.28
2023-04-13T14:35:30.096Z,98619.38
2023-04-13T14:37:58.634Z,98618.97
2023-04-13T14:40:27.790Z,98624.16
2023-04-13T14:42:55.207Z,98626.13
2023-04-13T14:45:22.739Z,98626.38
2023-04-13T14:47:50.358Z,98628.66
2023-04-13T14:50:17.571Z,98631.16
2023-04-13T14:52:46.187Z,98639.56
2023-04-13T14:55:14.735Z,98630.22
2023-04-13T14:57:42.276Z,98640.31
2023-04-13T15:00:21.842Z,98646.91
2023-04-13T15:02:53.522Z,98651.03
2023-04-13T15:05:22.128Z,98654.47
2023-04-13T15:07:51.280Z,98648.81
2023-04-13T15:10:19.344Z,98651.38
2023-04-13T15:12:48.513Z,98653.31
2023-04-13T15:15:17.754Z,98653.47
2023-04-13T15:17:45.706Z,98656.94
2023-04-13T15:20:13.006Z,98661.97
2023-04-13T15:22:40.589Z,98662.00
2023-04-13T15:25:08.212Z,98665.09
2023-04-13T15:27:35.960Z,98666.47
2023-04-13T15:30:06.229Z,98675.50
2023-04-13T15:32:37.340Z,98672.19
2023-04-13T15:35:05.101Z,98670.59
2023-04-13T15:37:32.392Z,98677.13
2023-04-13T15:40:00.509Z,98678.59
2023-04-13T15:42:27.442Z,98677.63
2023-04-13T15:44:55.468Z,98681.91
2023-04-13T15:47:23.810Z,98683.16
2023-04-13T15:49:51.654Z,98682.53
2023-04-13T15:52:18.780Z,98687.41
2023-04-13T15:54:46.617Z,98689.19
2023-04-13T15:57:14.841Z,98687.31
2023-04-13T15:59:42.769Z,98687.38
2023-04-13T16:02:10.356Z,98687.78
2023-04-13T16:04:38.084Z,98701.72
2023-04-13T16:07:13.687Z,98691.06
2023-04-13T16:09:45.362Z,98692.84
2023-04-13T16:12:13.085Z,98698.06
2023-04-13T16:14:45.880Z,98697.97
2023-04-13T16:17:15.365Z,98697.22
2023-04-13T16:19:47.457Z,98701.56
2023-04-13T16:22:16.111Z,98696.25
2023-04-13T16:24:43.732Z,98697.53
2023-04-13T16:27:13.842Z,98699.91
2023-04-13T16:29:45.787Z,98706.47
2023-04-13T16:32:12.945Z,98709.00
2023-04-13T16:34:40.492Z,98710.59
2023-04-13T16:37:09.049Z,98712.69
2023-04-13T16:39:37.169Z,98711.25
2023-04-13T16:42:04.884Z,98716.00
2023-04-13T16:44:33.581Z,98713.91
2023-04-13T16:47:01.618Z,98711.81
2023-04-13T16:49:29.186Z,98712.69
2023-04-13T16:51:57.726Z,98715.50
2023-04-13T16:54:25.352Z,98718.59
2023-04-13T16:56:53.007Z,98724.56
2023-04-13T16:59:21.177Z,98724.31
2023-04-13T17:01:48.720Z,98730.97
2023-04-13T17:04:16.921Z,98728.91
2023-04-13T17:06:44.118Z,98735.84
2023-04-13T17:09:11.856Z,98739.06
2023-04-13T17:11:39.147Z,98738.13
2023-04-13T17:14:06.657Z,98736.78
2023-04-13T17:16:34.415Z,98740.50
2023-04-13T17:19:02.104Z,98745.72
2023-04-13T17:21:29.846Z,98746.81
2023-04-13T17:23:57.191Z,98752.69
2023-04-13T17:26:23.988Z,98758.47
2023-04-13T17:28:51.650Z,98748.53
2023-04-13T17:31:19.020Z,98756.56
2023-04-13T17:33:47.236Z,98758.38
2023-04-13T17:36:16.124Z,98765.06
2023-04-13T17:38:43.486Z,98763.84
2023-04-13T17:41:11.988Z,98769.91
2023-04-13T17:43:40.108Z,98774.06
2023-04-13T17:46:08.605Z,98765.38
2023-04-13T17:48:36.136Z,98769.44
2023-04-13T17:51:03.316Z,98778.72
2023-04-13T17:53:30.536Z,98772.09
2023-04-13T17:55:57.477Z,98774.06
2023-04-13T17:58:24.553Z,98779.47
2023-04-13T18:00:51.968Z,98775.69
2023-04-13T18:03:19.710Z,98783.91
2023-04-13T18:05:47.283Z,98775.22
2023-04-13T18:08:14.520Z,98780.38
2023-04-13T18:10:41.837Z,98782.16
2023-04-13T18:13:08.711Z,98783.66
2023-04-13T18:15:35.986Z,98779.81
2023-04-13T18:18:03.837Z,98790.03
2023-04-13T18:20:31.600Z,98786.72
2023-04-13T18:22:58.817Z,98790.72
2023-04-13T18:25:26.081Z,98789.44
2023-04-13T18:27:54.113Z,98796.44
2023-04-13T18:30:21.605Z,98794.19
2023-04-13T18:32:51.642Z,98802.03
2023-04-13T18:35:19.514Z,98804.19
2023-04-13T18:37:47.084Z,98804.66
2023-04-13T18:40:14.614Z,98798.53
2023-04-13T18:42:42.347Z,98800.59
2023-04-13T18:45:10.167Z,98795.56
2023-04-13T18:47:37.017Z,98801.66
2023-04-13T18:50:06.074Z,98802.69
2023-04-13T18:52:33.308Z,98802.84
2023-04-13T18:55:00.694Z,98797.69
2023-04-13T18:57:27.987Z,98806.09
2023-04-13T18:59:55.335Z,98800.84
2023-04-13T19:02:22.758Z,98804.72
2023-04-13T19:04:50.205Z,98804.44
2023-04-13T19:07:17.424Z,98796.47
2023-04-13T19:09:44.658Z,98790.34
2023-04-13T19:12:11.675Z,98797.78
2023-04-13T19:14:38.954Z,98797.63
2023-04-13T19:17:06.455Z,98797.56
2023-04-13T19:19:33.649Z,98801.13
2023-04-13T19:22:01.316Z,98801.94
2023-04-13T19:24:28.754Z,98805.44
2023-04-13T19:26:56.852Z,98804.50
2023-04-13T19:29:27.339Z,98810.84
2023-04-13T19:31:54.913Z,98806.16
2023-04-13T19:34:22.561Z,98807.50
2023-04-13T19:36:49.780Z,98804.59
2023-04-13T19:39:16.962Z,98807.06
2023-04-13T19:41:44.512Z,98810.38
2023-04-13T19:44:13.906Z,98817.28
2023-04-13T19:46:41.151Z,98823.22
2023-04-13T19:49:08.470Z,98820.03
2023-04-13T19:51:35.979Z,98819.81
2023-04-13T19:54:05.181Z,98826.91
2023-04-13T19:56:36.737Z,98825.69
2023-04-13T19:59:05.640Z,98821.34
2023-04-13T20:01:33.963Z,98826.63
2023-04-13T20:04:03.776Z,98821.84
2023-04-13T20:06:34.073Z,98822.97
2023-04-13T20:09:12.414Z,98828.97
2023-04-13T20:11:42.045Z,98826.47
2023-04-13T20:14:11.547Z,98818.38
2023-04-13T20:16:39.113Z,98816.88
2023-04-13T20:19:11.316Z,98817.41
2023-04-13T20:21:38.774Z,98812.66
2023-04-13T20:24:06.058Z,98821.47
2023-04-13T20:26:33.376Z,98815.81
2023-04-13T20:29:03.041Z,98812.84
2023-04-13T20:31:31.970Z,98811.63
2023-04-13T20:33:59.776Z,98810.59
2023-04-13T20:36:27.114Z,98815.31
2023-04-13T20:38:59.804Z,98811.81
2023-04-13T20:41:27.398Z,98819.19
2023-04-13T20:43:54.895Z,98827.28
2023-04-13T20:46:25.387Z,98821.09
2023-04-13T20:48:52.904Z,98824.06
2023-04-13T20:51:23.502Z,98822.75
2023-04-13T20:53:51.262Z,98815.97
2023-04-13T20:56:19.328Z,98821.09
2023-04-13T20:58:48.196Z,98822.00
2023-04-13T21:01:15.673Z,98822.50
2023-04-13T21:03:43.672Z,98827.97
2023-04-13T21:06:11.114Z,98826.09
2023-04-13T21:08:38.402Z,98822.16
2023-04-13T21:11:06.887Z,98828.47
2023-04-13T21:13:34.131Z,98828.47
2023-04-13T21:16:01.501Z,98822.75
2023-04-13T21:18:29.497Z,98828.63
2023-04-13T21:20:56.751Z,98826.47
2023-04-13T21:23:24.267Z,98832.97
2023-04-13T21:25:51.486Z,98830.94
2023-04-13T21:28:19.978Z,98825.72
2023-04-13T21:30:47.013Z,98831.66
2023-04-13T21:33:14.089Z,98835.44
2023-04-13T21:35:41.063Z,98838.38
2023-04-13T21:38:08.445Z,98838.28
2023-04-13T21:40:36.206Z,98846.38
2023-04-13T21:43:03.836Z,98843.63
2023-04-13T21:45:31.219Z,98846.09
2023-04-13T21:47:58.353Z,98841.75
2023-04-13T21:50:25.528Z,98842.38
2023-04-13T21:52:52.686Z,98841.84
2023-04-13T21:55:19.797Z,98842.03
2023-04-13T21:57:48.477Z,98833.50
2023-04-13T22:00:19.965Z,98829.09
2023-04-13T22:02:47.198Z,98838.09
2023-04-13T22:05:16.511Z,98828.09
2023-04-13T22:07:44.583Z,98837.25
2023-04-13T22:10:12.115Z,98832.81
2023-04-13T22:12:39.481Z,98834.13
2023-04-13T22:15:07.334Z,98839.75
2023-04-13T22:17:34.621Z,98829.75
2023-04-13T22:20:01.778Z,98833.47
2023-04-13T22:22:28.744Z,98838.09
2023-04-13T22:24:56.188Z,98825.63
2023-04-13T22:27:23.341Z,98833.75
2023-04-13T22:29:54.918Z,98829.75
2023-04-13T22:32:21.933Z,98837.94
2023-04-13T22:34:49.741Z,98833.06
2023-04-13T22:37:17.683Z,98840.75
2023-04-13T22:39:45.251Z,98832.97
2023-04-13T22:42:12.337Z,98830.75
2023-04-13T22:44:39.494Z,98836.47
2023-04-13T22:47:06.872Z,98830.50
2023-04-13T22:49:34.094Z,98827.88
2023-04-13T22:52:01.228Z,98833.94
2023-04-13T22:54:28.151Z,98842.28
2023-04-13T22:56:55.259Z,98842.28
2023-04-13T22:59:22.267Z,98846.22
2023-04-13T23:01:49.307Z,98842.81
2023-04-13T23:04:16.781Z,98838.63
2023-04-13T23:06:44.065Z,98846.41
2023-04-13T23:09:11.266Z,98840.34
2023-04-13T23:11:38.930Z,98840.34
2023-04-13T23:14:06.874Z,98842.72
2023-04-13T23:16:34.811Z,98840.50
2023-04-13T23:19:02.293Z,98835.31
2023-04-13T23:21:29.901Z,98848.38
2023-04-13T23:23:57.507Z,98846.25
2023-04-13T23:26:24.484Z,98840.69
2023-04-13T23:28:52.005Z,98841.09
2023-04-13T23:31:19.206Z,98845.19
2023-04-13T23:33:46.430Z,98849.53
2023-04-13T23:36:13.576Z,98845.78
2023-04-13T23:38:41.405Z,98848.66
2023-04-13T23:41:08.250Z,98852.94
2023-04-13T23:43:35.161Z,98845.97
2023-04-13T23:46:02.023Z,98852.41
2023-04-13T23:48:29.640Z,98852.84
2023-04-13T23:50:57.652Z,98857.28
2023-04-13T23:53:24.757Z,98855.97
2023-04-13T23:55:52.030Z,98861.94
2023-04-13T23:58:19.202Z,98867.94
